Pagrindinis puslapis
METAR-TAF:

METAR-TAF

Oro uostai :

Ankaros oro uostas

Ankara Esenboğa, Turkija

platuma: 40-07N, ilguma: 032-59E, Aukštis: 953 m

Dabartinis oras

Ataskaita buvo paskelbta 27 minutes, ne 12:20 UTC
Vėjas 4 kt nuo kintamojo kryptimis
Temperatūra 8°C
Drėgmė 21%
Slėgis 1017 hPa
Matomumas 10 km arba daugiau
nėra debesų žemiau 1500 m ir nėra kamuolinių lietaus debesų

METAR: LTAC 251220Z VRB04KT CAVOK 08/M13 Q1017 NOSIG RMK RWY21L 19004KT 110V240 RWY03L VRB02KT RWY21R VRB03KT

Laikas: 15:47 (12:47 UTC)

Prognozė

Ataskaita buvo paskelbta 2 valandos ir 7 minutes, ne 10:40 UTC
Prognozė galioja nuo 25 metu 12 UTC su 26 metu 12 UTC
Vėjas 2 kt nuo kintamojo kryptimis
Matomumas 10 km arba daugiau
nėra debesų žemiau 1500 m ir nėra kamuolinių lietaus debesų
Tapsmas
nuo 26 metu 02 UTC su 26 metu 04 UTC
Išsisklaidę debesys ne aukštis 4000 ft

TAF: LTAC 251040Z 2512/2612 VRB02KT CAVOK BECMG 2602/2604 SCT040

Orai ataskaitas ir orų prognozės (METAR, TAF).

turimą stotys yra geltonos ir raudonos taškus žemėlapyje.

Perkelti pele per norėdami pamatyti stoties vardą.

Tada spustelėkite, norėdami matyti oro stebėjimo ir prognozės.

Norėdami pakeisti žemėlapį: spustelėkite ant žalios mygtukų su juodo kryžiaus žemyn,; žalią mygtuką su brūkšneliu, jei norite nutolinti; arba žalių rodyklių gretimoms žemėlapius.


METAR-TAF: